Time;durP1;ratioP1;P1;durP2;ratioP2;P2;SDS_P1;SDS_P2;PMS_P1;PMS_P2;Temp;Humidity;BMP_temperature;BMP_pressure;BME280_temperature;BME280_humidity;BME280_pressure;Samples;Min_cycle;Max_cycle;Signal;HPM_P1;HPM_P2
2021/08/06 00:04:30;;;;;;;4.82;4.18;;;;;;;17.45;79.97;100190.00;10461674;28;20049;-64
2021/08/06 00:09:36;;;;;;;4.57;4.13;;;;;;;17.68;79.13;100190.41;10443427;28;20382;-66
2021/08/06 00:14:38;;;;;;;4.47;4.07;;;;;;;17.48;79.98;100187.03;10461251;28;20048;-65
2021/08/06 00:19:41;;;;;;;3.83;3.35;;;;;;;17.74;79.71;100173.94;10443210;28;20103;-69
2021/08/06 00:24:43;;;;;;;5.32;4.00;;;;;;;17.56;79.73;100170.41;10461159;28;20493;-66
2021/08/06 00:29:45;;;;;;;5.25;3.13;;;;;;;17.69;79.46;100164.78;10459127;28;20053;-65
2021/08/06 00:34:48;;;;;;;4.63;4.00;;;;;;;17.50;80.20;100166.56;10460095;28;20519;-66
2021/08/06 00:39:50;;;;;;;6.03;3.85;;;;;;;17.61;80.36;100171.63;10460091;28;20056;-64
2021/08/06 00:44:52;;;;;;;4.75;3.65;;;;;;;17.47;80.45;100158.91;10459727;28;20409;-64
2021/08/06 00:49:55;;;;;;;5.88;3.28;;;;;;;17.57;80.62;100158.88;10459667;28;20053;-67
2021/08/06 00:54:57;;;;;;;5.78;3.80;;;;;;;17.39;81.16;100156.19;10458294;28;20045;-65
2021/08/06 00:59:59;;;;;;;4.53;4.05;;;;;;;17.36;81.15;100144.06;10459343;28;20045;-68
2021/08/06 01:05:10;;;;;;;7.05;3.90;;;;;;;17.40;81.33;100156.03;10457765;28;20064;-65
2021/08/06 01:10:13;;;;;;;3.78;3.30;;;;;;;17.64;80.65;100141.41;10457888;28;20401;-66
2021/08/06 01:15:16;;;;;;;4.90;3.58;;;;;;;17.52;80.27;100143.44;10458433;28;20049;-67
2021/08/06 01:20:22;;;;;;;5.82;3.40;;;;;;;17.44;81.26;100148.63;10457384;28;20045;-65
2021/08/06 01:25:45;;;;;;;5.97;4.03;;;;;;;17.50;80.73;100142.75;10457355;28;20059;-63
2021/08/06 01:30:47;;;;;;;4.53;3.50;;;;;;;17.48;81.10;100134.09;10457934;28;20056;-66
2021/08/06 01:35:50;;;;;;;6.13;4.13;;;;;;;17.42;81.44;100137.38;10456851;28;20080;-65
2021/08/06 01:41:01;;;;;;;4.45;3.55;;;;;;;17.59;80.10;100127.78;10457781;28;20052;-66
2021/08/06 01:46:09;;;;;;;5.15;2.85;;;;;;;17.62;80.55;100123.00;10457410;28;20485;-65
2021/08/06 01:51:13;;;;;;;3.45;3.15;;;;;;;17.54;80.89;100122.09;10456304;28;20095;-66
2021/08/06 01:56:19;;;;;;;3.60;3.30;;;;;;;17.45;81.39;100114.06;10457149;28;20511;-64
2021/08/06 02:01:22;;;;;;;4.35;3.95;;;;;;;17.70;80.59;100110.84;10455387;28;20052;-65
2021/08/06 02:06:25;;;;;;;9.02;4.28;;;;;;;17.43;80.99;100107.25;10457082;28;20055;-65
2021/08/06 02:11:28;;;;;;;4.07;3.72;;;;;;;17.51;81.81;100101.22;10456100;28;20378;-66
2021/08/06 02:16:30;;;;;;;4.55;4.15;;;;;;;17.45;82.87;100094.72;10456391;28;20408;-67
2021/08/06 02:21:34;;;;;;;4.93;4.25;;;;;;;17.18;83.94;100085.84;10456922;28;20041;-67
2021/08/06 02:26:39;;;;;;;5.28;3.58;;;;;;;17.12;84.80;100085.59;10455318;28;20048;-66
2021/08/06 02:31:43;;;;;;;4.65;3.63;;;;;;;17.16;82.76;100085.13;10456591;28;20057;-64
2021/08/06 02:36:47;;;;;;;4.53;3.88;;;;;;;16.94;84.09;100072.31;10456485;28;20045;-67
2021/08/06 02:41:50;;;;;;;3.60;3.17;;;;;;;17.07;83.02;100073.63;10456541;28;20414;-66
2021/08/06 02:46:52;;;;;;;6.45;3.15;;;;;;;17.04;83.43;100067.81;10454722;28;20493;-65
2021/08/06 02:51:55;;;;;;;4.00;3.63;;;;;;;16.99;84.10;100068.25;10456516;28;20045;-65
2021/08/06 02:56:58;;;;;;;3.75;3.08;;;;;;;17.19;82.90;100066.34;10454464;28;20497;-67
2021/08/06 03:02:00;;;;;;;4.95;3.67;;;;;;;17.30;83.28;100057.38;10455045;28;20045;-67
2021/08/06 03:07:03;;;;;;;5.03;3.83;;;;;;;17.09;84.72;100050.50;10455057;28;20128;-65
2021/08/06 03:12:05;;;;;;;5.40;3.95;;;;;;;17.31;83.41;100058.19;10455838;28;20041;-66
2021/08/06 03:17:08;;;;;;;10.38;4.15;;;;;;;17.13;84.41;100052.88;10463390;28;20408;-66
2021/08/06 03:22:10;;;;;;;5.57;3.72;;;;;;;17.17;83.08;100047.13;10463254;28;20052;-66
2021/08/06 03:27:12;;;;;;;4.00;3.58;;;;;;;17.23;83.10;100033.31;10462852;28;20049;-64
2021/08/06 03:32:15;;;;;;;3.70;3.20;;;;;;;17.05;83.70;100041.22;10462745;28;20493;-66
2021/08/06 03:37:17;;;;;;;3.13;2.83;;;;;;;17.16;82.63;100034.88;10462443;28;20041;-64
2021/08/06 03:42:20;;;;;;;9.32;3.40;;;;;;;17.12;83.67;100048.56;10462379;28;20049;-66
2021/08/06 03:47:22;;;;;;;4.97;3.72;;;;;;;17.09;83.86;100039.94;10462234;28;20048;-67
2021/08/06 03:52:24;;;;;;;5.63;3.25;;;;;;;17.13;85.11;100039.63;10461723;28;20484;-65
2021/08/06 03:57:27;;;;;;;5.85;3.80;;;;;;;17.14;82.67;100051.91;10461658;28;20045;-64
2021/08/06 04:02:29;;;;;;;4.10;3.22;;;;;;;16.95;85.26;100055.50;10461678;28;20045;-65
2021/08/06 04:07:31;;;;;;;5.35;3.30;;;;;;;17.08;84.72;100059.44;10461237;28;20053;-68
2021/08/06 04:12:34;;;;;;;3.45;3.15;;;;;;;16.75;86.03;100049.44;10461097;28;20523;-67
2021/08/06 04:17:36;;;;;;;6.60;3.25;;;;;;;16.82;85.89;100040.75;10461010;28;20056;-66
2021/08/06 04:22:39;;;;;;;3.47;3.17;;;;;;;16.93;85.33;100041.56;10459405;28;20055;-67
2021/08/06 04:27:41;;;;;;;4.18;3.78;;;;;;;16.84;86.28;100043.25;10459684;28;20417;-67
2021/08/06 04:32:44;;;;;;;6.53;3.85;;;;;;;16.99;85.83;100038.34;10460083;28;20385;-67
2021/08/06 04:37:53;;;;;;;3.53;3.28;;;;;;;16.91;85.49;100039.06;10460260;28;20052;-64
2021/08/06 04:42:56;;;;;;;5.43;2.80;;;;;;;16.97;85.85;100041.13;10460065;28;20053;-68
2021/08/06 04:48:00;;;;;;;4.18;2.88;;;;;;;17.12;85.82;100036.19;10459828;28;20417;-66
2021/08/06 04:53:03;;;;;;;6.53;3.17;;;;;;;17.02;86.59;100044.16;10459589;28;20584;-67
2021/08/06 04:58:05;;;;;;;4.03;3.08;;;;;;;16.95;86.16;100040.47;10459738;28;20056;-68
2021/08/06 05:03:08;;;;;;;3.53;3.22;;;;;;;17.06;85.33;100039.41;10457906;28;20064;-67
2021/08/06 05:08:10;;;;;;;3.30;3.00;;;;;;;17.09;86.29;100039.13;10458981;28;20055;-65
2021/08/06 05:13:13;;;;;;;5.75;2.90;;;;;;;17.09;85.35;100031.19;10458813;28;20048;-65
2021/08/06 05:18:15;;;;;;;4.18;3.15;;;;;;;17.17;85.84;100035.72;10458341;28;20405;-66
2021/08/06 05:23:17;;;;;;;8.02;3.75;;;;;;;17.27;85.51;100039.97;10458422;28;20075;-65
2021/08/06 05:28:19;;;;;;;4.13;3.53;;;;;;;17.36;84.42;100037.41;10458073;28;20049;-67
2021/08/06 05:33:22;;;;;;;5.88;3.05;;;;;;;17.29;85.71;100055.69;10458043;28;20064;-68
2021/08/06 05:38:24;;;;;;;4.53;3.78;;;;;;;17.41;85.16;100051.00;10457143;28;20068;-69
2021/08/06 05:43:26;;;;;;;6.25;3.85;;;;;;;17.15;86.11;100043.81;10457683;28;20519;-66
2021/08/06 05:48:29;;;;;;;4.63;4.22;;;;;;;17.03;86.57;100051.13;10456418;28;20049;-66
2021/08/06 05:53:31;;;;;;;7.85;4.57;;;;;;;17.01;86.60;100053.09;10456735;28;20059;-65
2021/08/06 05:58:33;;;;;;;7.20;4.65;;;;;;;16.94;87.66;100046.72;10456015;28;20059;-64
2021/08/06 06:03:36;;;;;;;8.35;5.00;;;;;;;16.86;87.55;100050.09;10457359;28;20045;-65
2021/08/06 06:08:38;;;;;;;7.50;4.68;;;;;;;17.20;87.53;100056.59;10455426;28;20045;-64
2021/08/06 06:13:41;;;;;;;6.28;4.78;;;;;;;17.06;87.61;100057.91;10456796;28;20049;-64
2021/08/06 06:18:43;;;;;;;7.75;4.45;;;;;;;17.22;86.83;100065.22;10456601;28;20044;-66
2021/08/06 06:23:45;;;;;;;5.07;4.57;;;;;;;17.25;87.39;100064.91;10455560;28;20060;-65
2021/08/06 06:28:48;;;;;;;4.10;3.60;;;;;;;17.33;87.12;100062.38;10456351;28;20045;-64
2021/08/06 06:33:50;;;;;;;3.35;3.05;;;;;;;17.27;86.84;100057.66;10456423;28;20049;-65
2021/08/06 06:38:52;;;;;;;3.83;2.67;;;;;;;17.61;86.36;100067.59;10456173;28;20045;-68
2021/08/06 06:43:55;;;;;;;6.47;3.15;;;;;;;17.70;84.94;100073.78;10456077;28;20409;-69
2021/08/06 06:48:57;;;;;;;2.50;2.30;;;;;;;17.73;87.50;100071.66;10459113;28;20057;-65
2021/08/06 06:53:59;;;;;;;2.50;2.30;;;;;;;18.21;84.41;100074.88;10464599;28;20048;-65
2021/08/06 06:59:02;;;;;;;3.25;3.05;;;;;;;18.17;83.89;100084.09;10463944;28;20053;-65
2021/08/06 07:04:04;;;;;;;2.92;2.72;;;;;;;18.00;84.70;100086.66;10464375;28;20052;-64
2021/08/06 07:09:09;;;;;;;4.90;3.70;;;;;;;17.92;85.73;100097.19;10463912;28;20055;-65
2021/08/06 07:14:12;;;;;;;3.00;2.70;;;;;;;18.40;82.88;100097.69;10462735;28;20079;-67
2021/08/06 07:19:14;;;;;;;3.95;3.47;;;;;;;18.41;82.81;100104.66;10463475;28;20459;-67
2021/08/06 07:24:17;;;;;;;4.00;3.70;;;;;;;18.45;84.29;100105.19;10463187;28;20420;-68
2021/08/06 07:29:19;;;;;;;4.47;4.07;;;;;;;18.06;84.51;100108.22;10463352;28;20040;-68
2021/08/06 07:34:22;;;;;;;4.63;4.18;;;;;;;18.29;83.06;100111.19;10463060;28;20049;-67
2021/08/06 07:39:24;;;;;;;6.15;5.68;;;;;;;18.48;84.51;100118.13;10461306;28;20045;-65
2021/08/06 07:44:27;;;;;;;5.03;4.53;;;;;;;18.25;84.80;100123.09;10462831;28;20048;-66
2021/08/06 07:49:30;;;;;;;7.93;6.93;;;;;;;18.46;84.67;100130.66;10462308;28;20413;-66
2021/08/06 07:54:32;;;;;;;6.53;5.93;;;;;;;18.25;83.73;100129.22;10461784;28;20053;-67
2021/08/06 07:59:34;;;;;;;8.10;5.57;;;;;;;18.52;85.44;100130.88;10460746;28;20048;-65
2021/08/06 08:04:37;;;;;;;5.38;3.85;;;;;;;18.89;80.63;100134.28;10462103;28;20076;-67
2021/08/06 08:09:39;;;;;;;5.15;4.65;;;;;;;18.89;83.13;100134.28;10461459;28;20049;-66
2021/08/06 08:14:42;;;;;;;3.92;3.60;;;;;;;18.90;81.72;100125.34;10460042;28;20056;-67
2021/08/06 08:19:45;;;;;;;4.43;3.78;;;;;;;18.75;82.57;100144.44;10460020;28;20481;-66
2021/08/06 08:24:47;;;;;;;4.35;3.30;;;;;;;19.51;78.29;100147.28;10460847;28;20049;-67
2021/08/06 08:29:50;;;;;;;7.15;4.72;;;;;;;20.12;79.96;100139.09;10460510;28;20053;-66
2021/08/06 08:34:52;;;;;;;4.95;3.10;;;;;;;20.51;77.40;100149.88;10460195;28;20409;-69
2021/08/06 08:39:54;;;;;;;5.75;3.85;;;;;;;19.51;80.57;100151.78;10460036;28;20505;-68
2021/08/06 08:45:01;;;;;;;5.47;4.03;;;;;;;19.70;80.26;100140.03;10460424;28;20067;-67
2021/08/06 08:50:06;;;;;;;4.75;4.15;;;;;;;19.26;81.09;100159.63;10459581;28;20071;-69
2021/08/06 08:55:10;;;;;;;8.07;5.03;;;;;;;19.81;76.47;100153.84;10459936;28;20059;-66
2021/08/06 09:00:15;;;;;;;4.13;3.15;;;;;;;19.71;77.93;100153.13;10458220;28;20378;-67
2021/08/06 09:05:20;;;;;;;5.47;3.78;;;;;;;21.48;75.03;100147.06;10459139;28;20511;-66
2021/08/06 09:10:27;;;;;;;6.40;3.40;;;;;;;20.80;73.31;100139.69;10457848;28;20045;-68
2021/08/06 09:15:41;;;;;;;3.55;3.17;;;;;;;20.77;73.87;100141.69;10459324;28;20051;-65
2021/08/06 09:20:44;;;;;;;3.47;2.80;;;;;;;22.17;71.33;100135.59;10458325;28;20413;-66
2021/08/06 09:25:46;;;;;;;6.10;2.70;;;;;;;22.57;71.70;100132.75;10441441;28;20055;-67
2021/08/06 09:30:50;;;;;;;4.22;2.88;;;;;;;22.80;69.44;100146.84;10458507;28;20041;-68
2021/08/06 09:36:09;;;;;;;4.43;2.90;;;;;;;22.12;70.01;100139.81;10458002;28;20057;-66
2021/08/06 09:41:37;;;;;;;2.88;2.47;;;;;;;23.38;67.25;100148.84;10457914;28;20053;-67
2021/08/06 09:46:40;;;;;;;5.93;2.65;;;;;;;21.00;72.47;100145.44;10457850;28;20052;-66
2021/08/06 09:51:44;;;;;;;4.88;3.30;;;;;;;20.94;74.04;100154.94;10457928;28;20106;-67
2021/08/06 09:56:47;;;;;;;4.10;1.88;;;;;;;22.08;69.62;100150.84;10456019;28;20049;-67
2021/08/06 10:01:59;;;;;;;2.22;1.67;;;;;;;23.09;66.73;100147.06;10457297;28;20041;-67
2021/08/06 10:07:02;;;;;;;5.05;1.85;;;;;;;22.57;67.50;100154.94;10456321;28;20083;-67
2021/08/06 10:12:05;;;;;;;3.35;1.80;;;;;;;22.88;67.05;100156.63;10455686;28;20513;-65
2021/08/06 10:17:09;;;;;;;10.45;1.80;;;;;;;22.63;64.45;100153.38;10456450;28;20394;-67
2021/08/06 10:22:11;;;;;;;6.05;1.92;;;;;;;21.76;67.60;100161.75;10454919;28;20551;-66
2021/08/06 10:27:18;;;;;;;2.72;1.85;;;;;;;22.70;66.00;100169.50;10455228;28;20053;-66
2021/08/06 10:32:21;;;;;;;3.50;1.75;;;;;;;22.61;62.63;100164.25;10455892;28;20044;-66
2021/08/06 10:38:02;;;;;;;7.18;2.20;;;;;;;21.70;68.21;100145.47;10456300;28;20079;-67
2021/08/06 10:43:10;;;;;;;4.47;2.00;;;;;;;21.28;69.87;100157.31;10456957;28;20041;-67
2021/08/06 10:48:31;;;;;;;4.90;1.77;;;;;;;21.43;67.34;100157.38;10456260;28;20505;-67
2021/08/06 10:53:33;;;;;;;4.15;1.83;;;;;;;20.89;71.70;100166.09;10456698;28;20049;-65
2021/08/06 10:58:48;;;;;;;3.70;1.70;;;;;;;22.90;68.13;100151.09;10455668;28;20128;-65
2021/08/06 11:03:53;;;;;;;4.25;2.00;;;;;;;22.52;61.84;100149.31;10456606;28;20049;-66
2021/08/06 11:08:56;;;;;;;5.57;1.45;;;;;;;21.82;67.31;100147.69;10455974;28;20052;-66
2021/08/06 11:13:58;;;;;;;3.95;2.60;;;;;;;20.72;71.38;100156.50;10454786;28;20060;-68
2021/08/06 11:19:01;;;;;;;6.90;2.75;;;;;;;20.53;72.69;100155.84;10455622;28;20045;-66
2021/08/06 11:24:17;;;;;;;2.35;2.22;;;;;;;21.23;72.30;100153.50;10455818;28;20052;-67
2021/08/06 11:29:20;;;;;;;4.18;3.15;;;;;;;21.25;73.15;100151.47;10454074;28;20483;-66
2021/08/06 11:34:22;;;;;;;7.35;2.95;;;;;;;22.16;72.29;100141.94;10455748;28;20049;-66
2021/08/06 11:39:25;;;;;;;3.85;2.13;;;;;;;24.34;65.00;100137.84;10462580;28;20056;-66
2021/08/06 11:44:27;;;;;;;3.50;2.10;;;;;;;24.64;66.21;100135.84;10463214;28;20080;-67
2021/08/06 11:49:29;;;;;;;2.40;1.52;;;;;;;25.69;57.79;100133.00;10461084;28;20056;-66
2021/08/06 11:54:32;;;;;;;4.03;1.33;;;;;;;23.17;62.31;100139.78;10461936;28;20055;-66
2021/08/06 11:59:34;;;;;;;2.40;1.50;;;;;;;23.57;61.73;100142.09;10461750;28;20045;-66
2021/08/06 12:04:36;;;;;;;2.80;1.40;;;;;;;22.32;63.25;100142.84;10461812;28;20095;-67
2021/08/06 12:09:45;;;;;;;2.20;1.00;;;;;;;21.62;63.51;100158.84;10461366;28;20049;-68
2021/08/06 12:14:47;;;;;;;2.03;1.35;;;;;;;20.78;65.92;100169.97;10461551;28;20055;-68
2021/08/06 12:19:52;;;;;;;2.95;1.77;;;;;;;19.99;71.36;100198.06;10460142;28;20098;-67
2021/08/06 12:24:54;;;;;;;2.58;1.67;;;;;;;20.85;72.38;100180.75;10460733;28;20057;-65
2021/08/06 12:29:57;;;;;;;1.55;1.45;;;;;;;21.82;68.40;100166.34;10460822;28;20056;-66
2021/08/06 12:34:59;;;;;;;1.73;1.45;;;;;;;21.68;69.30;100154.63;10460492;28;20052;-68
2021/08/06 12:40:01;;;;;;;4.93;1.80;;;;;;;22.74;71.35;100158.25;10459274;28;20044;-64
2021/08/06 12:45:09;;;;;;;2.03;0.90;;;;;;;25.17;61.95;100147.88;10459852;28;20057;-62
2021/08/06 12:50:22;;;;;;;1.48;1.10;;;;;;;24.37;60.67;100145.50;10460105;28;20045;-64
2021/08/06 12:55:24;;;;;;;1.17;1.08;;;;;;;21.79;63.71;100148.06;10459541;28;20489;-63
2021/08/06 13:00:46;;;;;;;1.13;0.80;;;;;;;22.60;66.46;100145.75;10459322;28;20396;-63
2021/08/06 13:05:49;;;;;;;1.65;1.25;;;;;;;22.95;62.61;100156.72;10459458;28;20045;-63
2021/08/06 13:11:03;;;;;;;0.70;0.70;;;;;;;22.75;60.79;100159.09;10458933;28;20047;-65
2021/08/06 13:16:09;;;;;;;1.17;0.88;;;;;;;23.80;63.37;100157.94;10458874;28;20041;-65
2021/08/06 13:21:12;;;;;;;1.75;0.85;;;;;;;25.81;56.01;100152.00;10459231;28;20047;-66
2021/08/06 13:26:15;;;;;;;2.25;0.60;;;;;;;26.51;54.00;100144.41;10457292;28;20048;-64
2021/08/06 13:31:17;;;;;;;1.35;0.90;;;;;;;25.91;55.86;100152.41;10458341;28;20056;-66
2021/08/06 13:36:19;;;;;;;4.32;1.15;;;;;;;25.68;52.43;100150.09;10456724;28;20480;-65
2021/08/06 13:41:22;;;;;;;1.33;0.70;;;;;;;25.24;54.47;100156.75;10457579;28;20404;-65
2021/08/06 13:46:24;;;;;;;1.33;0.75;;;;;;;24.00;57.71;100160.84;10457576;28;20045;-66
2021/08/06 13:51:27;;;;;;;3.42;1.27;;;;;;;23.36;59.48;100173.06;10457944;28;20057;-64
2021/08/06 13:56:29;;;;;;;1.00;0.90;;;;;;;24.07;61.31;100168.91;10455696;28;20128;-64
2021/08/06 14:01:32;;;;;;;1.77;0.80;;;;;;;26.75;52.79;100163.59;10455866;28;20080;-65
2021/08/06 14:06:34;;;;;;;2.80;0.88;;;;;;;24.94;56.32;100161.56;10456642;28;20490;-67
2021/08/06 14:11:37;;;;;;;1.13;0.85;;;;;;;26.32;50.87;100153.28;10456788;28;20560;-66
2021/08/06 14:16:39;;;;;;;1.10;0.73;;;;;;;24.87;53.87;100158.84;10456748;28;20041;-67
2021/08/06 14:21:41;;;;;;;0.50;0.50;;;;;;;23.05;59.76;100164.41;10456768;28;20049;-67
2021/08/06 14:26:45;;;;;;;1.63;0.55;;;;;;;23.07;59.92;100186.47;10456809;28;20049;-66
2021/08/06 14:31:51;;;;;;;0.90;0.50;;;;;;;21.67;62.81;100174.25;10455695;28;20052;-66
2021/08/06 14:36:54;;;;;;;1.67;1.08;;;;;;;21.28;66.05;100193.75;10456256;28;20041;-69
2021/08/06 14:41:56;;;;;;;0.77;0.77;;;;;;;20.74;68.00;100192.56;10456520;28;20044;-68
2021/08/06 14:46:58;;;;;;;0.63;0.60;;;;;;;24.18;57.08;100168.41;10456453;28;20052;-70
2021/08/06 14:52:01;;;;;;;0.70;0.50;;;;;;;23.56;57.25;100175.16;10456715;28;20045;-70
2021/08/06 14:57:03;;;;;;;2.30;0.70;;;;;;;23.62;58.27;100176.22;10456203;28;20073;-68
2021/08/06 15:02:06;;;;;;;1.23;0.65;;;;;;;24.07;56.00;100163.56;10455797;28;20400;-70
2021/08/06 15:07:08;;;;;;;1.60;0.63;;;;;;;23.90;57.50;100176.38;10455621;28;20053;-68
2021/08/06 15:12:11;;;;;;;1.55;0.80;;;;;;;24.32;55.70;100181.88;10462315;28;20489;-70
2021/08/06 15:17:14;;;;;;;1.23;0.50;;;;;;;24.28;55.66;100184.94;10463428;28;20491;-72
2021/08/06 15:22:16;;;;;;;0.70;0.70;;;;;;;24.35;56.52;100193.03;10463375;28;20063;-69
2021/08/06 15:27:18;;;;;;;3.40;0.93;;;;;;;24.19;58.03;100190.63;10462578;28;20059;-69
2021/08/06 15:32:21;;;;;;;1.13;0.70;;;;;;;24.36;56.12;100188.50;10462066;28;20045;-69
2021/08/06 15:37:23;;;;;;;1.50;0.63;;;;;;;24.66;54.62;100189.16;10462459;28;20436;-69
2021/08/06 15:42:26;;;;;;;1.42;0.70;;;;;;;25.67;52.13;100191.34;10462918;28;20044;-70
2021/08/06 15:47:28;;;;;;;0.82;0.60;;;;;;;25.19;53.31;100197.53;10461788;28;20404;-67
2021/08/06 15:52:30;;;;;;;1.50;0.60;;;;;;;24.88;52.19;100195.31;10462323;28;20485;-66
2021/08/06 15:57:33;;;;;;;0.60;0.60;;;;;;;23.61;56.67;100212.00;10461844;28;20055;-68
2021/08/06 16:02:35;;;;;;;1.70;0.50;;;;;;;24.05;54.09;100213.72;10462570;28;20055;-70
2021/08/06 16:07:38;;;;;;;3.45;0.50;;;;;;;23.51;55.71;100205.09;10461781;28;20049;-67
2021/08/06 16:12:41;;;;;;;0.40;0.40;;;;;;;22.84;56.51;100207.88;10461594;28;20048;-67
2021/08/06 16:17:44;;;;;;;0.75;0.50;;;;;;;23.33;57.59;100210.00;10459711;28;20084;-68
2021/08/06 16:22:47;;;;;;;3.05;0.50;;;;;;;23.53;57.16;100184.34;10460226;28;20405;-68
2021/08/06 16:27:50;;;;;;;0.95;0.50;;;;;;;23.82;56.91;100188.03;10460786;28;20049;-70
2021/08/06 16:33:13;;;;;;;0.70;0.70;;;;;;;23.37;56.98;100211.31;10460662;28;20059;-68
2021/08/06 16:38:16;;;;;;;1.55;0.68;;;;;;;22.95;59.33;100200.25;10460732;28;20049;-68
2021/08/06 16:43:18;;;;;;;1.25;0.82;;;;;;;22.58;59.31;100198.47;10460348;28;20060;-66
2021/08/06 16:48:22;;;;;;;0.63;0.57;;;;;;;21.30;65.04;100199.72;10459175;28;20056;-67
2021/08/06 16:53:24;;;;;;;3.10;1.02;;;;;;;21.70;65.11;100209.41;10460041;28;20045;-68
2021/08/06 16:58:27;;;;;;;1.45;0.90;;;;;;;22.40;61.96;100196.94;10459316;28;20053;-67
2021/08/06 17:03:29;;;;;;;1.02;0.88;;;;;;;22.44;63.51;100200.06;10459854;28;20049;-69
2021/08/06 17:08:32;;;;;;;3.22;1.40;;;;;;;22.65;62.14;100203.91;10459031;28;20166;-67
2021/08/06 17:13:35;;;;;;;1.90;1.10;;;;;;;22.43;62.86;100201.09;10459368;28;20397;-67
2021/08/06 17:18:37;;;;;;;2.67;0.90;;;;;;;22.05;65.14;100203.66;10457695;28;20045;-65
2021/08/06 17:23:40;;;;;;;1.20;1.00;;;;;;;22.90;60.71;100212.50;10457406;28;20048;-66
2021/08/06 17:28:42;;;;;;;2.60;1.10;;;;;;;22.72;60.01;100215.50;10458319;28;20053;-65
2021/08/06 17:33:45;;;;;;;0.98;0.85;;;;;;;22.57;60.75;100215.47;10458368;28;20045;-67
2021/08/06 17:38:50;;;;;;;1.42;0.85;;;;;;;21.64;63.05;100227.91;10458335;28;20047;-64
2021/08/06 17:43:53;;;;;;;1.65;0.63;;;;;;;22.26;59.84;100227.03;10456919;28;20060;-68
2021/08/06 17:48:55;;;;;;;1.63;0.98;;;;;;;21.64;63.73;100227.91;10457758;28;20063;-67
2021/08/06 17:53:57;;;;;;;2.72;1.00;;;;;;;21.66;62.12;100229.38;10457528;28;20052;-69
2021/08/06 17:59:00;;;;;;;1.50;0.95;;;;;;;21.39;62.05;100235.97;10457171;28;20048;-66
2021/08/06 18:04:03;;;;;;;1.65;0.90;;;;;;;21.03;63.62;100240.91;10457305;28;20045;-68
2021/08/06 18:09:07;;;;;;;1.40;1.00;;;;;;;20.71;63.62;100246.13;10457478;28;20415;-66
2021/08/06 18:14:10;;;;;;;1.95;0.75;;;;;;;20.57;64.92;100244.09;10456476;28;20485;-66
2021/08/06 18:19:12;;;;;;;4.07;1.25;;;;;;;20.12;67.51;100253.34;10457177;28;20053;-65
2021/08/06 18:24:14;;;;;;;3.50;0.90;;;;;;;20.07;67.04;100250.34;10456841;28;20053;-65
2021/08/06 18:29:20;;;;;;;5.50;1.63;;;;;;;19.79;68.77;100256.78;10455272;28;20048;-66
2021/08/06 18:34:22;;;;;;;5.25;1.38;;;;;;;19.46;69.84;100253.13;10456635;28;20067;-68
2021/08/06 18:39:24;;;;;;;3.65;1.15;;;;;;;19.34;71.02;100265.00;10455086;28;20400;-65
2021/08/06 18:44:27;;;;;;;3.22;1.30;;;;;;;19.25;71.96;100258.84;10459059;28;20048;-64
2021/08/06 18:49:30;;;;;;;2.90;1.20;;;;;;;19.21;71.67;100268.09;10464995;28;20049;-65
2021/08/06 18:54:33;;;;;;;1.58;1.08;;;;;;;19.11;73.47;100270.84;10464954;28;20083;-66
2021/08/06 18:59:36;;;;;;;2.30;1.20;;;;;;;18.55;75.91;100272.91;10464089;28;20045;-69
2021/08/06 19:04:38;;;;;;;5.53;1.52;;;;;;;18.66;74.66;100271.81;10464254;28;20048;-65
2021/08/06 19:09:40;;;;;;;1.98;1.20;;;;;;;18.81;74.79;100278.25;10462742;28;20045;-67
2021/08/06 19:14:43;;;;;;;4.05;1.48;;;;;;;18.78;73.63;100272.41;10463866;28;20444;-65
2021/08/06 19:19:45;;;;;;;4.40;1.60;;;;;;;18.67;74.62;100276.16;10463766;28;20049;-67
2021/08/06 19:24:47;;;;;;;3.30;1.42;;;;;;;18.49;75.87;100279.66;10463622;28;20048;-67
2021/08/06 19:29:52;;;;;;;3.88;1.73;;;;;;;18.32;76.45;100283.13;10462872;28;20527;-66
2021/08/06 19:34:55;;;;;;;1.77;1.65;;;;;;;18.25;77.34;100292.66;10463076;28;20052;-70
2021/08/06 19:39:58;;;;;;;3.95;1.80;;;;;;;18.26;76.74;100292.50;10462620;28;20055;-67
2021/08/06 19:45:00;;;;;;;4.50;1.73;;;;;;;18.07;77.87;100304.06;10462621;28;20045;-70
2021/08/06 19:50:03;;;;;;;5.78;2.00;;;;;;;18.12;77.76;100312.41;10462710;28;20060;-67
2021/08/06 19:55:08;;;;;;;5.22;2.00;;;;;;;18.27;77.12;100314.53;10460938;28;20049;-68
2021/08/06 20:00:12;;;;;;;4.63;2.35;;;;;;;18.14;77.59;100320.19;10462406;28;20367;-68
2021/08/06 20:05:15;;;;;;;3.75;1.90;;;;;;;18.14;77.48;100322.84;10461776;28;20120;-70
2021/08/06 20:10:17;;;;;;;6.15;1.95;;;;;;;18.06;77.95;100322.78;10461899;28;20045;-70
2021/08/06 20:15:21;;;;;;;4.97;1.90;;;;;;;17.79;78.00;100327.88;10460177;28;20052;-66
2021/08/06 20:20:24;;;;;;;3.25;1.83;;;;;;;17.76;78.76;100333.47;10461504;28;20049;-66
2021/08/06 20:25:26;;;;;;;2.05;1.90;;;;;;;17.74;79.61;100339.91;10460944;28;20492;-68
2021/08/06 20:30:28;;;;;;;1.85;1.65;;;;;;;17.64;79.80;100347.88;10460771;28;20041;-65
2021/08/06 20:35:31;;;;;;;2.70;1.92;;;;;;;17.79;78.97;100340.28;10460506;28;20417;-66
2021/08/06 20:40:33;;;;;;;3.95;2.25;;;;;;;17.60;79.89;100343.81;10460595;28;20076;-68
2021/08/06 20:45:36;;;;;;;4.70;1.83;;;;;;;17.60;80.19;100344.69;10460488;28;20060;-65
2021/08/06 20:50:39;;;;;;;1.58;1.48;;;;;;;17.87;79.39;100345.72;10460187;28;20096;-68
2021/08/06 20:55:44;;;;;;;3.13;2.08;;;;;;;17.86;79.25;100348.47;10459794;28;20056;-67
2021/08/06 21:00:46;;;;;;;2.33;1.92;;;;;;;17.95;79.44;100347.63;10458474;28;20052;-68
2021/08/06 21:05:49;;;;;;;3.08;2.38;;;;;;;17.71;79.39;100341.00;10459433;28;20045;-68
2021/08/06 21:10:51;;;;;;;12.93;2.30;;;;;;;17.63;80.77;100336.47;10457829;28;20055;-70
2021/08/06 21:15:54;;;;;;;2.40;2.13;;;;;;;17.44;80.09;100336.50;10458793;28;20539;-67
2021/08/06 21:20:56;;;;;;;3.25;1.90;;;;;;;17.48;80.89;100342.34;10459301;28;20103;-66
2021/08/06 21:25:59;;;;;;;3.33;2.05;;;;;;;17.41;80.87;100342.91;10458644;28;20052;-68
2021/08/06 21:31:04;;;;;;;6.20;2.35;;;;;;;17.39;81.48;100346.69;10458752;28;20059;-66
2021/08/06 21:36:07;;;;;;;5.18;2.50;;;;;;;17.30;81.34;100343.09;10457947;28;20551;-65
2021/08/06 21:41:09;;;;;;;3.97;2.10;;;;;;;17.36;81.35;100339.84;10457951;28;20045;-69
2021/08/06 21:46:11;;;;;;;6.40;2.60;;;;;;;17.21;82.64;100338.66;10457640;28;20417;-68
2021/08/06 21:51:14;;;;;;;2.53;2.33;;;;;;;17.46;81.42;100340.66;10457749;28;20048;-69
2021/08/06 21:56:16;;;;;;;4.60;2.42;;;;;;;17.35;81.08;100343.50;10457477;28;20045;-68
2021/08/06 22:01:19;;;;;;;4.03;2.33;;;;;;;17.55;80.74;100338.13;10457578;28;20044;-67
2021/08/06 22:06:21;;;;;;;5.13;2.35;;;;;;;17.60;80.70;100322.66;10457886;28;20053;-68
2021/08/06 22:11:24;;;;;;;4.93;3.40;;;;;;;17.43;80.56;100334.81;10456984;28;20425;-68
2021/08/06 22:16:26;;;;;;;7.75;3.00;;;;;;;17.57;80.35;100329.09;10457334;28;20044;-69
2021/08/06 22:21:28;;;;;;;4.18;3.15;;;;;;;17.39;81.14;100344.03;10456411;28;20052;-69
2021/08/06 22:26:31;;;;;;;4.15;3.13;;;;;;;17.35;80.36;100345.28;10456723;28;20063;-68
2021/08/06 22:31:33;;;;;;;2.90;2.50;;;;;;;17.55;80.15;100354.88;10457327;28;20061;-68
2021/08/06 22:36:36;;;;;;;9.55;2.67;;;;;;;17.41;80.05;100350.03;10456729;28;20099;-65
2021/08/06 22:41:38;;;;;;;5.72;2.95;;;;;;;17.27;81.12;100349.50;10456466;28;20063;-65
2021/08/06 22:46:41;;;;;;;2.97;2.78;;;;;;;17.68;79.45;100351.88;10455030;28;20057;-67
2021/08/06 22:51:43;;;;;;;4.50;2.50;;;;;;;17.51;79.23;100350.00;10456170;28;20568;-69
2021/08/06 22:56:45;;;;;;;3.33;2.65;;;;;;;17.47;78.91;100346.81;10455919;28;20428;-68
2021/08/06 23:01:47;;;;;;;4.07;2.20;;;;;;;17.67;79.39;100354.66;10455949;28;20057;-67
2021/08/06 23:06:50;;;;;;;2.33;1.92;;;;;;;17.80;78.44;100361.31;10454328;28;20049;-66
2021/08/06 23:11:52;;;;;;;7.93;3.65;;;;;;;17.48;78.77;100363.50;10455874;28;20049;-66
2021/08/06 23:16:55;;;;;;;2.67;2.25;;;;;;;17.57;79.45;100371.44;10455621;28;20566;-68